Time;durP1;ratioP1;P1;durP2;ratioP2;P2;SDS_P1;SDS_P2;PMS_P1;PMS_P2;Temp;Humidity;BMP_temperature;BMP_pressure;BME280_temperature;BME280_humidity;BME280_pressure;Samples;Min_cycle;Max_cycle;Signal;HPM_P1;HPM_P2
2022/01/28 00:01:05;;;;;;;12.93;2.43;;;4.80;99.90;;;;;;4899532;29;20182;-87
2022/01/28 00:03:36;;;;;;;11.20;2.73;;;4.80;99.90;;;;;;4899410;29;20178;-88
2022/01/28 00:06:03;;;;;;;15.97;2.97;;;4.80;99.90;;;;;;4899463;29;20229;-88
2022/01/28 00:08:29;;;;;;;17.33;3.03;;;4.80;99.90;;;;;;4899387;29;20191;-88
2022/01/28 00:10:55;;;;;;;9.67;2.17;;;4.80;99.90;;;;;;4899435;29;20183;-88
2022/01/28 00:13:37;;;;;;;12.63;2.53;;;4.80;99.90;;;;;;4899265;29;20230;-88
2022/01/28 00:40:26;;;;;;;13.07;2.60;;;4.70;99.90;;;;;;4900197;29;20167;-88
2022/01/28 00:42:52;;;;;;;15.30;2.87;;;4.80;99.90;;;;;;4899104;29;20595;-87
2022/01/28 00:45:18;;;;;;;18.37;3.17;;;4.80;99.90;;;;;;4898815;29;20629;-89
2022/01/28 00:47:46;;;;;;;18.57;3.17;;;4.70;99.90;;;;;;4899036;29;20234;-87
2022/01/28 00:50:13;;;;;;;19.13;3.57;;;4.80;99.90;;;;;;4898969;29;20526;-88
2022/01/28 00:52:39;;;;;;;22.33;3.57;;;4.80;99.90;;;;;;4898798;29;20698;-88
2022/01/28 00:55:05;;;;;;;15.23;2.73;;;4.70;99.90;;;;;;4898668;29;20187;-88
2022/01/28 00:57:30;;;;;;;22.43;4.03;;;4.70;99.90;;;;;;4899012;29;20285;-88
2022/01/28 00:59:56;;;;;;;22.77;4.07;;;4.70;99.90;;;;;;4898218;29;20281;-88
2022/01/28 01:02:22;;;;;;;16.73;3.23;;;4.60;99.90;;;;;;4898796;29;20590;-88
2022/01/28 01:04:47;;;;;;;18.40;2.80;;;4.50;99.90;;;;;;4898875;29;20191;-88
2022/01/28 01:07:13;;;;;;;24.37;4.27;;;4.60;99.90;;;;;;4898482;29;20187;-88
2022/01/28 01:09:39;;;;;;;17.17;3.37;;;4.70;99.90;;;;;;4898717;29;20197;-88
2022/01/28 01:12:08;;;;;;;26.13;3.97;;;4.70;99.90;;;;;;4898618;29;20187;-88
2022/01/28 01:14:33;;;;;;;26.17;4.30;;;4.70;99.90;;;;;;4898446;29;20290;-88
2022/01/28 01:19:42;;;;;;;21.13;3.33;;;4.70;99.90;;;;;;4899990;29;20612;-88
2022/01/28 01:22:09;;;;;;;19.50;3.70;;;4.60;99.90;;;;;;4899773;29;20179;-88
2022/01/28 01:24:37;;;;;;;21.90;3.67;;;4.60;99.90;;;;;;4900069;29;20180;-88
2022/01/28 01:27:04;;;;;;;25.63;3.47;;;4.60;99.90;;;;;;4898673;29;20175;-88
2022/01/28 01:29:30;;;;;;;23.87;3.93;;;4.60;99.90;;;;;;4898047;29;20333;-89
2022/01/28 01:32:04;;;;;;;28.70;4.13;;;4.60;99.90;;;;;;4897814;29;20455;-88
2022/01/28 01:34:30;;;;;;;17.80;3.07;;;4.60;99.90;;;;;;4898551;29;20202;-88
2022/01/28 01:36:55;;;;;;;22.90;3.13;;;4.60;99.90;;;;;;4899475;29;20517;-88
2022/01/28 01:39:25;;;;;;;20.73;3.63;;;4.60;99.90;;;;;;4898328;29;20573;-88
2022/01/28 01:42:05;;;;;;;17.50;3.10;;;4.70;99.90;;;;;;4898520;29;20179;-88
2022/01/28 01:44:59;;;;;;;23.43;3.10;;;4.60;99.90;;;;;;4898287;29;20179;-88
2022/01/28 01:52:30;;;;;;;13.40;2.90;;;4.70;99.90;;;;;;4899865;29;20214;-88
2022/01/28 01:54:56;;;;;;;21.57;4.07;;;4.70;99.90;;;;;;4898261;29;20317;-88
2022/01/28 01:57:21;;;;;;;18.47;3.03;;;4.60;99.90;;;;;;4898323;29;20184;-87
2022/01/28 01:59:48;;;;;;;17.87;2.97;;;4.60;99.90;;;;;;4898109;29;20593;-88
2022/01/28 02:02:13;;;;;;;20.77;3.23;;;4.60;99.90;;;;;;4898191;29;20175;-89
2022/01/28 02:04:39;;;;;;;20.60;4.33;;;4.50;99.90;;;;;;4898232;29;20295;-87
2022/01/28 02:07:05;;;;;;;21.67;3.97;;;4.50;99.90;;;;;;4898151;29;20183;-87
2022/01/28 02:09:31;;;;;;;23.83;4.20;;;4.40;99.90;;;;;;4898174;29;20188;-88
2022/01/28 02:11:57;;;;;;;16.70;3.03;;;4.50;99.90;;;;;;4899418;29;20184;-87
2022/01/28 02:14:23;;;;;;;20.60;3.23;;;4.40;99.90;;;;;;4902407;29;20211;-88
2022/01/28 02:16:48;;;;;;;22.53;3.90;;;4.50;99.90;;;;;;4901282;29;20323;-87
2022/01/28 02:19:14;;;;;;;25.97;4.20;;;4.50;99.90;;;;;;4901540;29;20187;-88
2022/01/28 02:21:46;;;;;;;26.37;3.13;;;4.50;99.90;;;;;;4901579;29;20596;-88
2022/01/28 02:24:14;;;;;;;23.07;3.13;;;4.60;99.90;;;;;;4901388;29;20187;-87
2022/01/28 02:26:40;;;;;;;21.70;4.10;;;4.70;99.90;;;;;;4901442;29;20231;-87
2022/01/28 02:29:11;;;;;;;19.00;2.83;;;4.70;99.90;;;;;;4902166;29;20585;-87
2022/01/28 02:31:37;;;;;;;22.90;4.27;;;4.80;99.90;;;;;;4902739;29;20482;-87
2022/01/28 02:34:09;;;;;;;19.77;3.50;;;4.70;99.90;;;;;;4901364;29;20218;-88
2022/01/28 02:36:35;;;;;;;17.53;3.63;;;4.70;99.90;;;;;;4901082;29;20186;-87
2022/01/28 02:39:02;;;;;;;19.97;3.97;;;4.60;99.90;;;;;;4901281;29;20187;-87
2022/01/28 02:41:33;;;;;;;23.97;4.13;;;4.70;99.90;;;;;;4901268;29;20614;-88
2022/01/28 02:44:06;;;;;;;15.40;3.47;;;4.60;99.90;;;;;;4900905;29;20187;-88
2022/01/28 02:46:34;;;;;;;15.60;2.70;;;4.70;99.90;;;;;;4901053;29;20202;-88
2022/01/28 02:49:11;;;;;;;14.13;2.83;;;4.70;99.90;;;;;;4902191;29;20187;-87
2022/01/28 02:51:37;;;;;;;19.57;3.40;;;4.70;99.90;;;;;;4901055;29;20182;-86
2022/01/28 02:54:13;;;;;;;15.03;2.80;;;4.60;99.90;;;;;;4901011;29;20218;-88
2022/01/28 02:56:47;;;;;;;18.47;3.03;;;4.60;99.90;;;;;;4901025;29;20194;-88
2022/01/28 02:59:13;;;;;;;21.23;3.40;;;4.60;99.90;;;;;;4900752;29;20202;-87
2022/01/28 03:01:39;;;;;;;20.83;3.50;;;4.60;99.90;;;;;;4902148;29;20187;-88
2022/01/28 03:04:06;;;;;;;21.20;3.73;;;4.50;99.90;;;;;;4900936;29;20179;-88
2022/01/28 03:06:32;;;;;;;19.00;3.27;;;4.60;99.90;;;;;;4900874;29;20622;-88
2022/01/28 03:09:02;;;;;;;21.33;3.50;;;4.50;99.90;;;;;;4900771;29;20335;-88
2022/01/28 03:14:17;;;;;;;19.97;4.07;;;4.50;99.90;;;;;;4901755;29;20215;-88
2022/01/28 03:17:50;;;;;;;15.53;3.00;;;4.50;99.90;;;;;;4900816;29;20179;-90
2022/01/28 03:19:49;;;;;;;15.10;3.67;;;4.60;99.90;;;;;;4894119;29;20214;-90
2022/01/28 03:22:15;;;;;;;16.43;3.33;;;4.60;99.90;;;;;;4900661;29;20630;-90
2022/01/28 03:24:41;;;;;;;20.20;3.40;;;4.60;99.90;;;;;;4900022;29;20207;-90
2022/01/28 03:27:14;;;;;;;16.93;3.23;;;4.60;99.90;;;;;;4900414;29;20179;-90
2022/01/28 03:29:45;;;;;;;19.70;3.47;;;4.60;99.90;;;;;;4900323;29;20294;-89
2022/01/28 03:32:10;;;;;;;19.40;3.77;;;4.60;99.90;;;;;;4900577;29;20183;-90
2022/01/28 03:34:36;;;;;;;16.63;3.17;;;4.60;99.90;;;;;;4900553;29;20714;-90
2022/01/28 03:37:04;;;;;;;16.93;3.03;;;4.50;99.90;;;;;;4900373;29;20274;-90
2022/01/28 03:39:30;;;;;;;22.10;3.33;;;4.50;99.90;;;;;;4900270;29;20210;-89
2022/01/28 03:41:55;;;;;;;23.97;3.60;;;4.50;99.90;;;;;;4901440;29;20207;-89
2022/01/28 03:44:21;;;;;;;21.77;3.80;;;4.50;99.90;;;;;;4900084;29;20641;-89
2022/01/28 03:46:47;;;;;;;24.97;3.40;;;4.50;99.90;;;;;;4901109;29;20218;-88
2022/01/28 03:49:13;;;;;;;14.63;2.73;;;4.50;99.90;;;;;;4900178;29;20179;-88
2022/01/28 03:51:38;;;;;;;17.80;2.93;;;4.50;99.90;;;;;;4900058;29;20187;-87
2022/01/28 03:54:06;;;;;;;17.20;2.93;;;4.50;99.90;;;;;;4899944;29;20215;-88
2022/01/28 03:56:32;;;;;;;16.53;3.43;;;4.40;99.90;;;;;;4899724;29;20282;-88
2022/01/28 03:58:59;;;;;;;18.90;3.13;;;4.40;99.90;;;;;;4899585;29;20597;-88
2022/01/28 04:01:30;;;;;;;19.07;3.57;;;4.40;99.90;;;;;;4899658;29;20210;-88
2022/01/28 04:11:54;;;;;;;14.87;2.73;;;4.20;99.90;;;;;;4901058;29;20174;-87
2022/01/28 04:19:30;;;;;;;16.00;2.07;;;4.20;99.90;;;;;;4900799;29;20206;-88
2022/01/28 04:21:55;;;;;;;11.83;2.30;;;4.10;99.90;;;;;;4899367;29;20211;-88
2022/01/28 04:24:21;;;;;;;12.93;2.60;;;4.20;99.90;;;;;;4899286;29;20183;-87
2022/01/28 04:26:47;;;;;;;10.40;1.70;;;4.20;99.90;;;;;;4899135;29;20231;-88
2022/01/28 04:29:13;;;;;;;12.30;2.27;;;4.10;99.90;;;;;;4898850;29;20697;-87
2022/01/28 04:31:46;;;;;;;10.00;1.87;;;4.10;99.90;;;;;;4899181;29;20267;-87
2022/01/28 04:34:16;;;;;;;8.60;1.70;;;4.00;99.90;;;;;;4899109;29;20278;-88
2022/01/28 04:37:03;;;;;;;13.57;2.30;;;4.00;99.90;;;;;;4898260;29;20188;-87
2022/01/28 04:39:42;;;;;;;12.77;2.17;;;4.00;99.90;;;;;;4898955;29;20278;-87
2022/01/28 04:56:00;;;;;;;18.20;2.60;;;4.00;99.90;;;;;;4900358;29;20230;-87
2022/01/28 05:27:26;;;;;;;13.77;2.67;;;4.00;99.90;;;;;;4899759;29;20513;-88
2022/01/28 05:29:52;;;;;;;17.07;2.93;;;4.00;99.90;;;;;;4898286;29;20235;-87
2022/01/28 05:32:17;;;;;;;16.20;3.03;;;3.90;99.90;;;;;;4898222;29;20187;-88
2022/01/28 05:34:43;;;;;;;21.87;3.10;;;3.90;99.90;;;;;;4898318;29;20195;-87
2022/01/28 05:37:09;;;;;;;17.33;3.30;;;3.90;99.90;;;;;;4899372;29;20194;-88
2022/01/28 05:39:35;;;;;;;15.83;3.00;;;3.90;99.90;;;;;;4898534;29;20187;-88
2022/01/28 05:42:01;;;;;;;14.87;3.03;;;3.90;99.90;;;;;;4898567;29;20191;-88
2022/01/28 05:44:27;;;;;;;16.97;3.17;;;3.90;99.90;;;;;;4898223;29;20625;-88
2022/01/28 05:46:56;;;;;;;17.63;3.87;;;3.90;99.90;;;;;;4899357;29;20186;-88
2022/01/28 05:49:22;;;;;;;15.03;2.87;;;4.00;99.90;;;;;;4902401;29;20187;-87
2022/01/28 05:51:49;;;;;;;18.47;3.20;;;4.00;99.90;;;;;;4902048;29;20211;-88
2022/01/28 05:54:15;;;;;;;14.73;2.80;;;4.00;99.90;;;;;;4901794;29;20246;-88
2022/01/28 05:56:41;;;;;;;16.80;3.00;;;4.00;99.90;;;;;;4901769;29;20577;-88
2022/01/28 05:59:06;;;;;;;14.57;2.70;;;4.00;99.90;;;;;;4901800;29;20188;-87
2022/01/28 06:01:32;;;;;;;15.70;3.03;;;4.00;99.90;;;;;;4901930;29;20179;-87
2022/01/28 06:03:58;;;;;;;16.90;3.10;;;3.90;99.90;;;;;;4901785;29;20179;-88
2022/01/28 06:06:24;;;;;;;19.20;3.50;;;4.00;99.90;;;;;;4901746;29;20180;-87
2022/01/28 06:08:55;;;;;;;15.30;3.77;;;4.00;99.90;;;;;;4901947;29;20183;-88
2022/01/28 06:11:22;;;;;;;18.83;3.10;;;4.10;99.90;;;;;;4901302;29;20179;-88
2022/01/28 06:13:53;;;;;;;18.57;3.33;;;4.00;99.90;;;;;;4901473;29;20261;-87
2022/01/28 06:16:19;;;;;;;18.27;3.60;;;4.10;99.90;;;;;;4895066;29;20202;-87
2022/01/28 06:18:45;;;;;;;15.87;3.10;;;4.00;99.90;;;;;;4900393;29;20638;-89
2022/01/28 06:21:11;;;;;;;19.10;2.63;;;3.90;99.90;;;;;;4899685;29;20188;-89
2022/01/28 06:23:37;;;;;;;20.13;2.83;;;3.90;99.90;;;;;;4900121;29;20191;-88
2022/01/28 06:26:04;;;;;;;14.73;2.33;;;3.90;99.90;;;;;;4901264;29;20608;-88
2022/01/28 06:28:31;;;;;;;15.40;3.30;;;3.70;99.90;;;;;;4901033;29;20234;-88
2022/01/28 06:30:58;;;;;;;17.50;3.17;;;3.70;99.90;;;;;;4900780;29;20187;-88
2022/01/28 06:33:24;;;;;;;14.93;3.00;;;3.70;99.90;;;;;;4900972;29;20215;-89
2022/01/28 06:35:49;;;;;;;17.77;3.03;;;3.60;99.90;;;;;;4901499;29;20255;-88
2022/01/28 06:38:15;;;;;;;17.83;3.37;;;3.70;99.90;;;;;;4901264;29;20190;-88
2022/01/28 06:40:42;;;;;;;14.37;3.07;;;3.60;99.90;;;;;;4901159;29;20206;-88
2022/01/28 06:43:09;;;;;;;12.07;2.93;;;3.60;99.90;;;;;;4901432;29;20191;-89
2022/01/28 06:45:35;;;;;;;13.70;3.20;;;3.50;99.90;;;;;;4900854;29;20190;-90
2022/01/28 06:48:01;;;;;;;20.03;3.33;;;3.60;99.90;;;;;;4900953;29;20646;-89
2022/01/28 06:50:26;;;;;;;21.80;3.67;;;3.60;99.90;;;;;;4899329;29;20198;-89
2022/01/28 06:52:52;;;;;;;20.87;3.13;;;3.60;99.90;;;;;;5482344;23;20196;-91
2022/01/28 06:55:18;;;;;;;14.30;3.30;;;3.70;99.90;;;;;;4954368;28;20300;-91
2022/01/28 06:57:44;;;;;;;18.20;3.40;;;3.60;99.90;;;;;;4944783;28;20269;-92
2022/01/28 07:00:11;;;;;;;18.97;3.50;;;3.60;99.90;;;;;;4947969;28;20280;-91
2022/01/28 07:02:37;;;;;;;19.57;3.43;;;3.70;99.90;;;;;;4957944;28;20225;-92
2022/01/28 07:05:04;;;;;;;15.17;2.80;;;3.70;99.90;;;;;;4958202;28;20181;-91
2022/01/28 07:07:30;;;;;;;17.07;2.97;;;3.70;99.90;;;;;;4957928;28;20177;-91
2022/01/28 07:09:55;;;;;;;20.37;3.63;;;3.60;99.90;;;;;;4957018;28;20646;-91
2022/01/28 07:12:22;;;;;;;14.37;2.93;;;3.60;99.90;;;;;;4957404;28;20244;-91
2022/01/28 07:14:48;;;;;;;13.60;2.77;;;3.70;99.90;;;;;;4957642;28;20182;-91
2022/01/28 07:17:15;;;;;;;21.63;2.87;;;3.70;99.90;;;;;;4957615;28;20585;-90
2022/01/28 07:19:40;;;;;;;13.90;2.90;;;3.70;99.90;;;;;;4957716;28;20178;-91
2022/01/28 07:22:06;;;;;;;15.03;3.00;;;3.70;99.90;;;;;;4957696;28;20174;-91
2022/01/28 07:24:32;;;;;;;15.63;2.87;;;3.70;99.90;;;;;;4957345;28;20220;-91
2022/01/28 07:26:58;;;;;;;18.53;3.57;;;3.60;99.90;;;;;;4957116;28;20173;-91
2022/01/28 07:29:28;;;;;;;20.57;3.57;;;3.80;99.90;;;;;;4957197;28;20215;-91
2022/01/28 07:31:54;;;;;;;21.73;3.40;;;3.80;99.90;;;;;;4957105;28;20189;-91
2022/01/28 07:34:20;;;;;;;18.40;3.17;;;3.80;99.90;;;;;;4956982;28;20213;-91
2022/01/28 07:36:46;;;;;;;18.50;3.77;;;3.80;99.90;;;;;;4950657;28;20538;-91
2022/01/28 07:39:12;;;;;;;14.83;3.00;;;3.90;99.90;;;;;;4946000;28;20207;-91
2022/01/28 07:41:39;;;;;;;23.17;4.40;;;3.90;99.90;;;;;;4947440;29;20178;-92
2022/01/28 07:44:05;;;;;;;20.17;3.93;;;4.00;99.90;;;;;;4937956;29;20190;-91
2022/01/28 07:46:31;;;;;;;17.43;3.57;;;4.00;99.90;;;;;;4937969;29;20178;-91
2022/01/28 07:48:56;;;;;;;18.37;3.90;;;3.90;99.90;;;;;;4955198;29;20529;-91
2022/01/28 07:51:23;;;;;;;16.03;3.30;;;4.00;99.90;;;;;;4953112;28;20187;-91
2022/01/28 07:53:48;;;;;;;15.90;3.40;;;3.90;99.90;;;;;;4952686;28;20233;-91
2022/01/28 07:56:15;;;;;;;17.03;3.10;;;3.80;99.90;;;;;;4956243;28;20193;-91
2022/01/28 07:58:40;;;;;;;22.47;4.17;;;3.90;99.90;;;;;;4955991;28;20620;-92
2022/01/28 08:01:07;;;;;;;22.90;4.17;;;3.90;99.90;;;;;;4956248;28;20188;-91
2022/01/28 08:03:32;;;;;;;21.40;4.13;;;3.90;99.90;;;;;;4955623;28;20188;-91
2022/01/28 08:05:58;;;;;;;16.63;3.53;;;3.90;99.90;;;;;;4946963;29;20196;-91
2022/01/28 08:08:24;;;;;;;18.20;3.03;;;4.00;99.90;;;;;;4955551;28;20189;-96
2022/01/28 08:10:50;;;;;;;19.50;3.60;;;3.90;99.90;;;;;;4956447;28;20518;-93
2022/01/28 08:13:16;;;;;;;26.03;3.40;;;4.00;99.90;;;;;;4956513;28;20215;-94
2022/01/28 08:15:44;;;;;;;19.10;3.70;;;4.00;99.90;;;;;;4956832;28;20177;-91
2022/01/28 08:18:11;;;;;;;19.53;3.83;;;4.00;99.90;;;;;;4950615;28;20247;-93
2022/01/28 08:20:37;;;;;;;17.37;3.57;;;4.10;99.90;;;;;;4956817;28;20269;-93
2022/01/28 08:23:03;;;;;;;22.40;3.47;;;4.00;99.90;;;;;;4951488;28;20209;-95
2022/01/28 08:25:32;;;;;;;24.33;4.17;;;4.00;99.90;;;;;;4936732;29;20265;-95
2022/01/28 08:27:58;;;;;;;17.17;3.07;;;4.10;99.90;;;;;;4937470;29;20170;-95
2022/01/28 08:30:26;;;;;;;18.00;4.13;;;4.10;99.90;;;;;;4937307;29;20572;-92
2022/01/28 08:32:53;;;;;;;20.97;3.70;;;4.00;99.90;;;;;;4944227;29;20211;-93
2022/01/28 08:35:28;;;;;;;21.67;4.63;;;4.10;99.90;;;;;;4944193;28;20250;-93
2022/01/28 08:37:53;;;;;;;16.17;3.90;;;4.10;99.90;;;;;;4956284;28;20174;-92
2022/01/28 08:40:19;;;;;;;18.67;3.87;;;4.20;99.90;;;;;;4955699;28;20181;-90
2022/01/28 08:42:44;;;;;;;22.67;3.70;;;4.20;99.90;;;;;;4937300;29;20185;-92
2022/01/28 08:45:10;;;;;;;27.03;3.77;;;4.20;99.90;;;;;;4936865;29;20526;-91
2022/01/28 08:47:36;;;;;;;21.20;4.10;;;4.20;99.90;;;;;;4943577;29;20620;-92
2022/01/28 08:50:03;;;;;;;20.33;4.57;;;4.20;99.90;;;;;;4950686;28;20648;-93
2022/01/28 08:52:28;;;;;;;24.37;3.67;;;4.30;99.90;;;;;;4936850;29;20181;-93
2022/01/28 08:54:54;;;;;;;20.40;4.00;;;4.30;99.90;;;;;;4940982;29;20548;-92
2022/01/28 08:57:20;;;;;;;23.67;4.30;;;4.20;99.90;;;;;;4954988;28;20176;-92
2022/01/28 08:59:45;;;;;;;24.53;4.47;;;4.30;99.90;;;;;;4955964;28;20185;-91
2022/01/28 09:02:11;;;;;;;20.17;3.97;;;4.30;99.90;;;;;;4954852;28;20181;-90
2022/01/28 09:04:37;;;;;;;28.30;4.30;;;4.30;99.90;;;;;;4951197;28;20620;-91
2022/01/28 09:07:03;;;;;;;21.00;3.80;;;4.40;99.90;;;;;;4955256;28;20204;-92
2022/01/28 09:09:29;;;;;;;21.53;4.60;;;4.40;99.90;;;;;;4955710;28;20240;-92
2022/01/28 09:14:25;;;;;;;25.93;4.40;;;4.40;99.90;;;;;;4956721;28;20221;-91
2022/01/28 09:16:52;;;;;;;20.83;4.20;;;4.50;99.90;;;;;;4955577;28;20197;-91
2022/01/28 09:19:18;;;;;;;26.73;4.53;;;4.50;99.90;;;;;;4945546;28;20185;-91
2022/01/28 09:21:44;;;;;;;21.97;3.27;;;4.60;99.90;;;;;;4939351;29;20177;-91
2022/01/28 09:24:10;;;;;;;27.30;4.17;;;4.60;99.90;;;;;;4943185;29;20180;-91
2022/01/28 09:26:36;;;;;;;20.00;4.00;;;4.70;99.90;;;;;;4942880;28;20635;-90
2022/01/28 09:29:03;;;;;;;26.60;4.73;;;4.70;99.90;;;;;;4942832;29;20240;-90
2022/01/28 09:31:29;;;;;;;22.77;3.80;;;4.80;99.90;;;;;;4943699;28;20501;-92
2022/01/28 09:33:55;;;;;;;17.67;3.40;;;4.70;99.90;;;;;;4957250;28;20311;-91
2022/01/28 09:36:21;;;;;;;23.17;3.57;;;4.70;99.90;;;;;;4961969;28;20205;-90
2022/01/28 09:38:47;;;;;;;20.43;3.80;;;4.70;99.90;;;;;;4956202;28;20607;-90
2022/01/28 09:41:14;;;;;;;24.10;4.37;;;4.80;99.90;;;;;;4961953;28;20200;-92
2022/01/28 09:43:43;;;;;;;22.47;3.30;;;4.80;99.90;;;;;;4961009;28;20708;-91
2022/01/28 09:46:08;;;;;;;15.00;3.47;;;4.80;99.90;;;;;;4961492;28;20177;-91
2022/01/28 09:48:34;;;;;;;17.30;3.47;;;4.90;99.90;;;;;;4961768;28;20189;-91
2022/01/28 09:51:02;;;;;;;16.13;3.30;;;4.80;99.90;;;;;;4959840;28;20244;-91
2022/01/28 09:53:28;;;;;;;19.80;3.67;;;4.90;99.90;;;;;;4958360;28;20320;-90
2022/01/28 09:55:54;;;;;;;17.93;4.37;;;5.00;99.90;;;;;;4944365;28;20623;-91
2022/01/28 09:58:20;;;;;;;22.57;4.10;;;5.10;99.90;;;;;;4961922;28;20170;-91
2022/01/28 10:00:54;;;;;;;29.33;4.20;;;5.10;99.90;;;;;;4959781;28;20181;-91
2022/01/28 10:03:20;;;;;;;26.90;4.70;;;5.10;99.90;;;;;;4946505;28;20659;-91
2022/01/28 10:05:51;;;;;;;21.83;4.90;;;5.10;99.90;;;;;;4942460;29;20178;-91
2022/01/28 10:08:25;;;;;;;20.50;4.47;;;5.20;99.90;;;;;;4942456;29;20616;-91
2022/01/28 10:11:02;;;;;;;17.27;3.33;;;5.20;99.90;;;;;;4942517;28;20326;-92
2022/01/28 10:13:37;;;;;;;22.23;3.63;;;5.30;99.90;;;;;;4941924;29;20672;-92
2022/01/28 10:16:10;;;;;;;17.30;3.43;;;5.40;99.90;;;;;;4952317;28;20212;-91
2022/01/28 10:18:58;;;;;;;24.00;4.83;;;5.40;99.90;;;;;;4961511;28;20604;-92
2022/01/28 10:21:39;;;;;;;26.03;4.07;;;5.40;99.90;;;;;;4959988;28;20177;-92
2022/01/28 10:24:09;;;;;;;14.97;3.10;;;5.50;99.90;;;;;;4942287;29;20518;-93
2022/01/28 10:26:35;;;;;;;22.27;5.30;;;5.50;99.90;;;;;;4942309;29;20216;-91
2022/01/28 10:29:02;;;;;;;21.90;3.63;;;5.60;99.90;;;;;;4950904;28;20200;-93
2022/01/28 10:31:43;;;;;;;19.80;4.17;;;5.60;99.90;;;;;;4943548;28;20185;-92
2022/01/28 10:34:15;;;;;;;23.23;3.37;;;5.60;99.90;;;;;;4941980;28;20241;-91
2022/01/28 10:36:40;;;;;;;19.03;3.53;;;5.60;99.90;;;;;;4958269;28;20196;-91
2022/01/28 10:39:22;;;;;;;18.37;3.33;;;5.60;99.90;;;;;;4958182;28;20181;-93
2022/01/28 10:41:53;;;;;;;20.77;3.77;;;5.70;99.90;;;;;;4939755;28;20193;-92
2022/01/28 10:44:19;;;;;;;20.20;4.40;;;5.70;99.90;;;;;;4939173;29;20549;-94
2022/01/28 10:46:52;;;;;;;25.30;4.03;;;5.60;99.90;;;;;;4938900;29;20198;-95
2022/01/28 10:49:17;;;;;;;18.23;3.37;;;5.70;99.90;;;;;;4956945;28;20177;-93
2022/01/28 10:51:49;;;;;;;19.83;3.87;;;5.70;99.90;;;;;;4958390;28;20518;-92
2022/01/28 10:54:23;;;;;;;17.53;3.40;;;5.70;99.90;;;;;;4956816;28;20244;-92
2022/01/28 10:56:57;;;;;;;20.33;4.00;;;5.90;99.90;;;;;;4958338;28;20209;-93
2022/01/28 10:59:31;;;;;;;17.70;3.67;;;6.00;99.90;;;;;;4957304;28;20192;-94
2022/01/28 11:01:58;;;;;;;19.53;3.43;;;6.00;99.90;;;;;;4943818;29;20190;-91
2022/01/28 11:04:24;;;;;;;21.27;3.83;;;6.00;99.90;;;;;;4938731;29;20229;-91
2022/01/28 11:06:52;;;;;;;21.50;4.63;;;6.00;99.90;;;;;;4938099;28;20186;-92
2022/01/28 11:09:20;;;;;;;17.57;3.90;;;6.00;99.90;;;;;;4939137;29;20198;-93
2022/01/28 11:11:47;;;;;;;17.30;3.47;;;6.00;99.90;;;;;;4938554;29;20547;-92
2022/01/28 11:14:13;;;;;;;17.40;3.47;;;6.00;99.90;;;;;;4953750;28;20260;-93
2022/01/28 11:16:39;;;;;;;16.57;3.60;;;6.00;99.90;;;;;;4938336;29;20209;-92
2022/01/28 11:19:08;;;;;;;19.13;4.00;;;6.10;99.90;;;;;;4941433;28;20197;-91
2022/01/28 11:22:01;;;;;;;21.93;3.60;;;6.10;99.90;;;;;;4942331;29;20196;-89
2022/01/28 11:25:03;;;;;;;19.10;3.70;;;6.10;99.90;;;;;;4952972;28;20188;-92
2022/01/28 11:27:31;;;;;;;20.20;4.40;;;6.10;99.90;;;;;;4937654;29;20501;-92
2022/01/28 11:30:17;;;;;;;21.53;3.60;;;6.10;99.90;;;;;;4938094;29;20174;-92
2022/01/28 11:33:00;;;;;;;17.13;3.57;;;6.30;99.90;;;;;;4938075;29;20185;-92
2022/01/28 11:35:29;;;;;;;24.50;3.73;;;6.30;99.90;;;;;;4938036;29;20178;-92
2022/01/28 11:38:01;;;;;;;18.33;4.30;;;6.30;99.90;;;;;;4938493;29;20614;-93
2022/01/28 11:40:27;;;;;;;19.37;3.77;;;6.30;99.90;;;;;;4949375;29;20209;-92
2022/01/28 11:43:16;;;;;;;22.43;3.90;;;6.30;99.90;;;;;;4957423;28;20205;-92
2022/01/28 11:45:42;;;;;;;24.17;4.13;;;6.40;99.90;;;;;;4956634;28;20203;-92
2022/01/28 11:48:07;;;;;;;17.53;3.33;;;6.40;99.90;;;;;;4957219;28;20181;-92
2022/01/28 11:50:33;;;;;;;24.40;4.17;;;6.50;99.90;;;;;;4938876;28;20581;-92
2022/01/28 11:52:59;;;;;;;13.43;3.37;;;6.40;99.90;;;;;;4937609;29;20241;-92
2022/01/28 11:55:25;;;;;;;17.00;3.43;;;6.40;99.90;;;;;;4940830;29;20193;-92
2022/01/28 11:57:53;;;;;;;20.43;3.53;;;6.60;99.90;;;;;;4957168;28;20196;-95
2022/01/28 12:00:55;;;;;;;21.87;3.57;;;6.60;99.90;;;;;;4954228;28;20180;-92
2022/01/28 12:03:23;;;;;;;19.83;3.67;;;6.60;99.90;;;;;;4936454;28;20197;-92
2022/01/28 12:05:51;;;;;;;20.07;3.57;;;6.60;99.90;;;;;;4946636;28;20237;-93
2022/01/28 12:08:18;;;;;;;17.50;3.10;;;6.60;99.90;;;;;;4954011;29;20209;-92
2022/01/28 12:10:45;;;;;;;18.00;3.70;;;6.70;99.90;;;;;;4956555;28;20181;-93
2022/01/28 12:13:14;;;;;;;18.13;3.23;;;6.80;99.90;;;;;;4956661;28;20836;-93
2022/01/28 12:16:11;;;;;;;19.67;4.30;;;6.80;99.90;;;;;;4957028;28;20563;-93
2022/01/28 12:18:45;;;;;;;21.37;3.80;;;6.80;99.90;;;;;;4956594;28;20177;-94
2022/01/28 12:21:17;;;;;;;21.80;3.57;;;6.90;99.90;;;;;;4956729;28;20188;-92
2022/01/28 12:23:44;;;;;;;15.40;3.17;;;6.80;99.90;;;;;;4957026;28;20236;-91
2022/01/28 12:26:13;;;;;;;17.27;2.90;;;6.80;99.90;;;;;;4956497;28;20503;-93
2022/01/28 12:28:54;;;;;;;18.57;3.73;;;6.80;99.90;;;;;;4948485;28;20621;-94
2022/01/28 12:31:29;;;;;;;15.67;3.37;;;6.70;99.90;;;;;;4938737;29;20166;-93
2022/01/28 12:33:57;;;;;;;19.70;3.40;;;6.70;99.90;;;;;;4937401;29;20553;-93
2022/01/28 12:36:26;;;;;;;13.97;3.17;;;6.60;99.90;;;;;;4937331;29;20636;-93
2022/01/28 12:39:06;;;;;;;17.67;3.70;;;6.80;99.90;;;;;;4952979;28;20182;-91
2022/01/28 12:41:41;;;;;;;15.17;3.40;;;6.80;99.90;;;;;;4937196;28;20185;-92
2022/01/28 12:44:08;;;;;;;18.77;3.60;;;6.90;99.90;;;;;;4957322;28;20470;-91
2022/01/28 12:46:37;;;;;;;23.07;3.63;;;7.00;99.90;;;;;;4954362;28;20541;-91
2022/01/28 12:49:03;;;;;;;14.33;2.80;;;7.00;99.90;;;;;;4938838;29;20269;-91
2022/01/28 12:51:29;;;;;;;12.43;2.87;;;7.00;99.90;;;;;;4937046;29;20580;-92
2022/01/28 12:53:54;;;;;;;14.70;2.83;;;7.00;99.90;;;;;;4938728;29;20695;-94
2022/01/28 12:56:33;;;;;;;16.43;3.17;;;6.90;99.90;;;;;;4936468;29;20551;-92
2022/01/28 12:59:00;;;;;;;13.10;2.87;;;6.90;99.90;;;;;;4937373;29;20213;-92
2022/01/28 13:01:26;;;;;;;12.97;2.93;;;6.90;99.90;;;;;;4937100;29;20177;-92
2022/01/28 13:04:04;;;;;;;18.43;3.10;;;7.00;99.90;;;;;;4936749;29;20273;-92
2022/01/28 13:09:12;;;;;;;14.57;3.33;;;7.20;99.90;;;;;;4937889;29;20158;-92
2022/01/28 13:11:42;;;;;;;20.27;3.43;;;7.30;99.90;;;;;;4937756;29;20181;-91
2022/01/28 13:14:08;;;;;;;17.53;3.30;;;7.30;99.90;;;;;;4944717;28;20209;-92
2022/01/28 13:16:36;;;;;;;17.47;3.07;;;7.40;99.90;;;;;;4936798;29;20209;-92
2022/01/28 13:19:05;;;;;;;15.37;2.93;;;7.30;99.90;;;;;;4937209;29;20561;-91
2022/01/28 13:21:32;;;;;;;11.27;2.13;;;7.30;99.90;;;;;;4936727;29;20182;-93
2022/01/28 13:24:13;;;;;;;16.83;3.10;;;7.30;99.90;;;;;;4936873;29;20185;-95
2022/01/28 13:27:03;;;;;;;21.37;3.20;;;7.30;99.90;;;;;;4936329;29;20277;-93
2022/01/28 13:29:33;;;;;;;17.70;3.57;;;7.30;99.90;;;;;;4929733;29;20186;-92
2022/01/28 13:32:01;;;;;;;13.00;2.90;;;7.30;99.90;;;;;;4937010;29;20174;-93
2022/01/28 13:34:27;;;;;;;19.70;3.53;;;7.20;99.90;;;;;;4936503;29;20607;-95
2022/01/28 13:36:57;;;;;;;15.50;3.20;;;7.20;99.90;;;;;;4936571;29;20213;-92
2022/01/28 13:39:27;;;;;;;14.00;2.93;;;7.20;99.90;;;;;;4937099;29;20174;-94
2022/01/28 13:42:12;;;;;;;16.10;2.53;;;7.20;99.90;;;;;;4942507;29;20190;-92
2022/01/28 13:44:41;;;;;;;14.27;3.10;;;7.30;99.90;;;;;;4955954;28;20305;-92
2022/01/28 13:47:09;;;;;;;12.47;2.53;;;7.30;99.90;;;;;;4955532;28;20181;-93
2022/01/28 13:49:36;;;;;;;12.63;2.70;;;7.30;99.90;;;;;;4941332;28;20190;-91
2022/01/28 13:52:15;;;;;;;16.30;3.07;;;7.20;99.90;;;;;;4936278;29;20189;-93
2022/01/28 13:54:41;;;;;;;16.23;3.53;;;7.30;99.90;;;;;;4935966;29;20465;-92
2022/01/28 13:57:09;;;;;;;17.53;3.43;;;7.30;99.90;;;;;;4936279;29;20174;-91
2022/01/28 13:59:39;;;;;;;16.20;2.63;;;7.30;99.90;;;;;;4945831;29;20244;-91
2022/01/28 14:02:15;;;;;;;15.90;3.10;;;7.30;99.90;;;;;;4955529;28;20264;-92
2022/01/28 14:04:44;;;;;;;14.87;3.13;;;7.20;99.90;;;;;;4956226;28;20162;-92
2022/01/28 14:07:20;;;;;;;15.10;2.83;;;7.10;99.90;;;;;;4949615;28;20273;-91
2022/01/28 14:09:52;;;;;;;17.50;3.47;;;7.00;99.90;;;;;;4950680;29;20173;-93
2022/01/28 14:12:26;;;;;;;15.43;3.40;;;6.90;99.90;;;;;;4958892;28;20644;-94
2022/01/28 14:14:58;;;;;;;14.80;3.83;;;6.90;99.90;;;;;;4958195;28;20734;-94
2022/01/28 14:17:23;;;;;;;23.53;3.53;;;6.80;99.90;;;;;;4959028;28;20177;-93
2022/01/28 14:19:51;;;;;;;17.30;2.87;;;6.90;99.90;;;;;;4958857;28;20185;-93
2022/01/28 14:22:17;;;;;;;13.57;3.40;;;6.80;99.90;;;;;;4958179;28;20271;-92
2022/01/28 14:24:44;;;;;;;18.47;3.00;;;6.90;99.90;;;;;;4959241;28;20700;-94
2022/01/28 14:27:44;;;;;;;16.60;3.00;;;6.90;99.90;;;;;;4946873;28;20552;-93
2022/01/28 14:30:04;;;;;;;16.03;3.00;;;7.00;99.90;;;;;;4958711;29;20559;-94
2022/01/28 14:32:30;;;;;;;21.77;3.10;;;7.00;99.90;;;;;;4958750;28;20173;-95